createdAt,value
2019-04-28T00:01:41.070Z,27.80
2019-04-28T00:04:11.453Z,27.80
2019-04-28T00:06:41.652Z,27.70
2019-04-28T00:09:11.407Z,27.70
2019-04-28T00:11:41.578Z,27.70
2019-04-28T00:14:11.856Z,27.60
2019-04-28T00:16:41.148Z,27.60
2019-04-28T00:19:11.008Z,27.50
2019-04-28T00:21:41.556Z,27.50
2019-04-28T00:24:11.560Z,27.50
2019-04-28T00:26:41.472Z,27.50
2019-04-28T00:29:11.113Z,27.40
2019-04-28T00:31:41.366Z,27.40
2019-04-28T00:34:11.425Z,27.40
2019-04-28T00:36:42.564Z,27.40
2019-04-28T00:39:11.105Z,27.30
2019-04-28T00:41:39.554Z,27.40
2019-04-28T00:44:07.822Z,27.30
2019-04-28T00:46:37.437Z,27.30
2019-04-28T00:49:05.710Z,27.30
2019-04-28T00:51:33.980Z,27.20
2019-04-28T00:54:02.244Z,27.30
2019-04-28T00:56:31.697Z,27.30
2019-04-28T00:59:01.627Z,27.20
2019-04-28T01:01:47.084Z,27.10
2019-04-28T01:04:15.408Z,27.10
2019-04-28T01:06:43.656Z,27.10
2019-04-28T01:09:11.965Z,27.00
2019-04-28T01:11:41.436Z,27.00
2019-04-28T01:14:11.457Z,27.00
2019-04-28T01:16:59.775Z,27.00
2019-04-28T01:19:30.161Z,27.00
2019-04-28T01:22:10.229Z,26.90
2019-04-28T01:24:41.725Z,26.90
2019-04-28T01:27:30.409Z,26.90
2019-04-28T01:30:07.901Z,26.90
2019-04-28T01:32:35.471Z,26.80
2019-04-28T01:35:04.153Z,26.80
2019-04-28T01:37:32.428Z,26.80
2019-04-28T01:40:00.704Z,26.80
2019-04-28T01:42:30.227Z,26.80
2019-04-28T01:45:00.552Z,26.70
2019-04-28T01:47:30.409Z,26.70
2019-04-28T01:50:01.751Z,26.70
2019-04-28T01:52:30.236Z,26.70
2019-04-28T01:55:00.484Z,26.70
2019-04-28T01:57:29.988Z,26.60
2019-04-28T01:59:59.812Z,26.60
2019-04-28T02:02:30.105Z,26.60
2019-04-28T02:04:59.915Z,26.50
2019-04-28T02:07:30.600Z,26.60
2019-04-28T02:09:58.780Z,26.60
2019-04-28T02:12:30.224Z,26.50
2019-04-28T02:15:00.630Z,26.40
2019-04-28T02:17:30.419Z,26.40
2019-04-28T02:20:00.434Z,26.40
2019-04-28T02:22:33.517Z,26.40
2019-04-28T02:25:01.835Z,26.30
2019-04-28T02:27:30.295Z,26.20
2019-04-28T02:30:00.165Z,26.30
2019-04-28T02:32:30.980Z,26.20
2019-04-28T02:35:01.143Z,26.20
2019-04-28T02:37:30.523Z,26.20
2019-04-28T02:40:02.828Z,26.10
2019-04-28T02:42:30.929Z,26.10
2019-04-28T02:45:00.435Z,26.10
2019-04-28T02:47:33.605Z,26.00
2019-04-28T02:50:03.289Z,26.00
2019-04-28T02:52:33.193Z,26.00
2019-04-28T02:55:02.998Z,26.00
2019-04-28T02:57:31.899Z,26.00
2019-04-28T03:00:00.429Z,26.00
2019-04-28T03:02:31.678Z,26.00
2019-04-28T03:05:00.283Z,25.90
2019-04-28T03:07:30.702Z,25.90
2019-04-28T03:10:01.116Z,25.80
2019-04-28T03:12:31.285Z,25.90
2019-04-28T03:15:00.648Z,25.80
2019-04-28T03:17:31.090Z,25.80
2019-04-28T03:20:01.008Z,25.80
2019-04-28T03:22:31.254Z,25.70
2019-04-28T03:25:00.885Z,25.80
2019-04-28T03:27:31.124Z,25.70
2019-04-28T03:30:01.160Z,25.70
2019-04-28T03:32:45.167Z,25.60
2019-04-28T03:35:04.527Z,25.60
2019-04-28T03:37:32.789Z,25.60
2019-04-28T03:40:01.352Z,25.60
2019-04-28T03:42:31.442Z,25.60
2019-04-28T03:45:01.298Z,25.50
2019-04-28T03:47:31.207Z,25.50
2019-04-28T03:50:00.258Z,25.50
2019-04-28T03:52:31.015Z,25.50
2019-04-28T03:55:00.562Z,25.50
2019-04-28T03:57:31.100Z,25.50
2019-04-28T04:00:01.475Z,25.40
2019-04-28T04:02:31.129Z,25.40
2019-04-28T04:05:03.382Z,25.40
2019-04-28T04:07:30.866Z,25.40
2019-04-28T04:10:11.322Z,25.40
2019-04-28T04:12:46.995Z,25.40
2019-04-28T04:15:23.702Z,25.30
2019-04-28T04:18:11.033Z,25.30
2019-04-28T04:20:40.990Z,25.20
2019-04-28T04:23:11.312Z,25.20
2019-04-28T04:25:41.739Z,25.20
2019-04-28T04:28:10.570Z,25.20
2019-04-28T04:30:40.880Z,25.20
2019-04-28T04:33:11.095Z,25.20
2019-04-28T04:35:43.147Z,25.20
2019-04-28T04:38:10.453Z,25.10
2019-04-28T04:40:41.209Z,25.10
2019-04-28T04:43:11.214Z,25.10
2019-04-28T04:45:40.466Z,25.10
2019-04-28T04:48:11.649Z,25.10
2019-04-28T04:50:41.227Z,25.10
2019-04-28T04:53:11.049Z,25.10
2019-04-28T04:55:40.881Z,25.10
2019-04-28T04:58:10.760Z,25.00
2019-04-28T05:00:52.731Z,25.00
2019-04-28T05:03:22.637Z,25.00
2019-04-28T05:05:51.188Z,25.00
2019-04-28T05:08:20.272Z,24.90
2019-04-28T05:10:50.358Z,24.90
2019-04-28T05:13:20.064Z,24.90
2019-04-28T05:15:48.569Z,24.90
2019-04-28T05:18:16.831Z,24.90
2019-04-28T05:20:45.194Z,24.90
2019-04-28T05:23:19.633Z,24.90
2019-04-28T05:25:49.583Z,24.80
2019-04-28T05:28:19.762Z,24.80
2019-04-28T05:30:50.120Z,24.80
2019-04-28T05:33:30.670Z,24.80
2019-04-28T05:35:59.252Z,24.80
2019-04-28T05:38:27.560Z,24.80
2019-04-28T05:40:55.978Z,24.80
2019-04-28T05:43:24.257Z,24.80
2019-04-28T05:45:52.520Z,24.80
2019-04-28T05:48:22.490Z,24.80
2019-04-28T05:50:52.386Z,24.80
2019-04-28T05:53:30.066Z,24.80
2019-04-28T05:56:02.849Z,24.80
2019-04-28T05:58:41.491Z,24.70
2019-04-28T06:01:11.404Z,24.70
2019-04-28T06:03:40.603Z,24.70
2019-04-28T06:06:10.237Z,24.70
2019-04-28T06:08:52.336Z,24.70
2019-04-28T06:11:39.652Z,24.60
2019-04-28T06:14:09.787Z,24.60
2019-04-28T06:16:37.917Z,24.60
2019-04-28T06:19:06.172Z,24.60
2019-04-28T06:21:34.685Z,24.50
2019-04-28T06:24:02.953Z,24.50
2019-04-28T06:26:31.214Z,24.50
2019-04-28T06:28:59.469Z,24.50
2019-04-28T06:31:27.973Z,24.50
2019-04-28T06:33:56.234Z,24.50
2019-04-28T06:36:24.509Z,24.50
2019-04-28T06:38:52.761Z,24.50
2019-04-28T06:41:21.031Z,24.50
2019-04-28T06:43:49.306Z,24.50
2019-04-28T06:46:17.548Z,24.50
2019-04-28T06:48:45.818Z,24.40
2019-04-28T06:51:14.180Z,24.40
2019-04-28T06:53:42.430Z,24.40
2019-04-28T06:56:11.003Z,24.40
2019-04-28T06:58:39.240Z,24.40
2019-04-28T07:01:07.767Z,24.40
2019-04-28T07:03:36.017Z,24.30
2019-04-28T07:06:04.325Z,24.30
2019-04-28T07:08:32.597Z,24.30
2019-04-28T07:11:00.871Z,24.40
2019-04-28T07:13:29.194Z,24.40
2019-04-28T07:15:57.459Z,24.50
2019-04-28T07:18:25.727Z,24.60
2019-04-28T07:21:01.560Z,24.60
2019-04-28T07:23:30.962Z,24.70
2019-04-28T07:25:59.204Z,24.70
2019-04-28T07:28:27.474Z,24.80
2019-04-28T07:30:55.717Z,24.80
2019-04-28T07:33:35.566Z,24.90
2019-04-28T07:35:54.305Z,24.90
2019-04-28T07:38:22.566Z,25.00
2019-04-28T07:40:50.834Z,25.00
2019-04-28T07:43:19.107Z,25.00
2019-04-28T07:45:47.357Z,25.00
2019-04-28T07:48:15.634Z,25.10
2019-04-28T07:50:43.981Z,25.00
2019-04-28T07:53:23.141Z,25.00
2019-04-28T07:55:51.763Z,25.00
2019-04-28T07:58:20.034Z,24.90
2019-04-28T08:00:48.884Z,25.00
2019-04-28T08:03:17.332Z,24.90
2019-04-28T08:05:45.886Z,25.00
2019-04-28T08:08:14.125Z,24.90
2019-04-28T08:10:42.383Z,24.90
2019-04-28T08:13:10.625Z,24.90
2019-04-28T08:15:39.198Z,24.90
2019-04-28T08:18:07.447Z,24.80
2019-04-28T08:20:36.052Z,24.80
2019-04-28T08:23:04.353Z,24.80
2019-04-28T08:25:32.627Z,24.80
2019-04-28T08:28:01.066Z,24.80
2019-04-28T08:30:29.317Z,25.00
2019-04-28T08:32:59.225Z,26.20
2019-04-28T08:35:27.745Z,26.60
2019-04-28T08:37:56.014Z,26.80
2019-04-28T08:40:24.302Z,27.20
2019-04-28T08:42:52.550Z,27.90
2019-04-28T08:45:20.837Z,28.40
2019-04-28T08:47:49.109Z,28.90
2019-04-28T08:50:17.365Z,29.20
2019-04-28T08:52:45.944Z,29.30
2019-04-28T08:55:14.488Z,29.30
2019-04-28T08:57:42.740Z,29.30
2019-04-28T09:00:12.409Z,29.20
2019-04-28T09:02:40.665Z,29.10
2019-04-28T09:05:08.949Z,28.90
2019-04-28T09:07:37.256Z,28.80
2019-04-28T09:10:09.097Z,28.70
2019-04-28T09:12:37.369Z,28.60
2019-04-28T09:15:06.686Z,28.40
2019-04-28T09:17:35.019Z,28.30
2019-04-28T09:20:04.325Z,28.30
2019-04-28T09:22:32.650Z,28.20
2019-04-28T09:25:00.980Z,28.10
2019-04-28T09:27:29.573Z,28.00
2019-04-28T09:29:57.822Z,27.80
2019-04-28T09:32:26.118Z,27.60
2019-04-28T09:34:54.427Z,27.50
2019-04-28T09:37:22.687Z,27.30
2019-04-28T09:39:58.729Z,27.20
2019-04-28T09:42:31.845Z,27.10
2019-04-28T09:45:02.102Z,27.00
2019-04-28T09:47:30.453Z,26.80
2019-04-28T09:49:58.728Z,26.70
2019-04-28T09:52:27.293Z,26.50
2019-04-28T09:54:55.533Z,26.40
2019-04-28T09:57:23.813Z,26.30
2019-04-28T09:59:52.097Z,26.20
2019-04-28T10:02:20.357Z,26.00
2019-04-28T10:04:48.617Z,25.90
2019-04-28T10:07:16.956Z,25.80
2019-04-28T10:09:45.660Z,25.70
2019-04-28T10:12:26.316Z,25.70
2019-04-28T10:14:43.941Z,25.70
2019-04-28T10:17:12.189Z,25.50
2019-04-28T10:19:40.485Z,25.50
2019-04-28T10:22:08.764Z,25.40
2019-04-28T10:24:37.021Z,25.40
2019-04-28T10:27:06.660Z,25.30
2019-04-28T10:29:34.966Z,25.40
2019-04-28T10:32:03.234Z,25.30
2019-04-28T10:34:31.512Z,25.30
2019-04-28T10:36:59.777Z,25.20
2019-04-28T10:39:35.409Z,25.10
2019-04-28T10:42:04.013Z,25.10
2019-04-28T10:44:33.911Z,25.00
2019-04-28T10:47:02.178Z,25.10
2019-04-28T10:49:30.444Z,25.00
2019-04-28T10:51:59.739Z,25.00
2019-04-28T10:54:28.142Z,24.90
2019-04-28T10:56:56.392Z,24.80
2019-04-28T10:59:25.287Z,24.80
2019-04-28T11:01:53.910Z,24.80
2019-04-28T11:04:32.797Z,24.70
2019-04-28T11:07:01.049Z,24.70
2019-04-28T11:09:31.065Z,24.70
2019-04-28T11:11:59.622Z,24.60
2019-04-28T11:14:27.893Z,24.60
2019-04-28T11:16:56.244Z,24.60
2019-04-28T11:19:24.491Z,24.70
2019-04-28T11:21:52.757Z,24.60
2019-04-28T11:24:21.262Z,24.60
2019-04-28T11:26:49.541Z,24.60
2019-04-28T11:29:17.815Z,24.60
2019-04-28T11:31:46.066Z,24.60
2019-04-28T11:34:21.989Z,24.60
2019-04-28T11:36:50.562Z,24.60
2019-04-28T11:39:20.489Z,24.60
2019-04-28T11:41:48.763Z,24.60
2019-04-28T11:44:17.406Z,24.60
2019-04-28T11:46:45.689Z,24.70
2019-04-28T11:49:13.936Z,24.70
2019-04-28T11:51:42.185Z,24.70
2019-04-28T11:54:10.485Z,24.60
2019-04-28T11:56:41.683Z,24.60
2019-04-28T11:59:09.680Z,24.70
2019-04-28T12:01:37.929Z,24.70
2019-04-28T12:04:07.858Z,24.60
2019-04-28T12:06:36.109Z,24.60
2019-04-28T12:09:16.825Z,24.60
2019-04-28T12:11:52.663Z,24.60
2019-04-28T12:14:28.684Z,24.60
2019-04-28T12:17:01.294Z,24.60
2019-04-28T12:19:34.160Z,24.80
2019-04-28T12:22:02.421Z,24.70
2019-04-28T12:24:30.688Z,24.60
2019-04-28T12:26:58.942Z,24.50
2019-04-28T12:29:27.550Z,24.50
2019-04-28T12:31:55.828Z,24.50
2019-04-28T12:34:24.131Z,24.50
2019-04-28T12:36:52.401Z,24.50
2019-04-28T12:39:20.705Z,24.50
2019-04-28T12:41:48.945Z,24.50
2019-04-28T12:44:17.220Z,24.60
2019-04-28T12:46:45.793Z,24.50
2019-04-28T12:49:15.708Z,24.50
2019-04-28T12:51:43.958Z,24.50
2019-04-28T12:54:13.869Z,24.50
2019-04-28T12:56:42.136Z,24.60
2019-04-28T12:59:28.722Z,24.60
2019-04-28T13:02:01.524Z,24.60
2019-04-28T13:04:37.193Z,24.50
2019-04-28T13:07:07.089Z,24.40
2019-04-28T13:09:35.361Z,24.40
2019-04-28T13:12:04.182Z,24.40
2019-04-28T13:14:32.433Z,24.30
2019-04-28T13:17:00.705Z,24.30
2019-04-28T13:19:29.061Z,24.40
2019-04-28T13:21:57.339Z,24.40
2019-04-28T13:24:25.582Z,24.40
2019-04-28T13:26:53.858Z,24.30
2019-04-28T13:29:22.145Z,24.30
2019-04-28T13:31:50.718Z,24.30
2019-04-28T13:34:20.625Z,24.30
2019-04-28T13:36:49.113Z,24.30
2019-04-28T13:39:25.237Z,24.30
2019-04-28T13:41:53.509Z,24.40
2019-04-28T13:44:39.949Z,24.40
2019-04-28T13:47:08.217Z,24.40
2019-04-28T13:49:50.770Z,24.40
2019-04-28T13:52:19.096Z,24.40
2019-04-28T13:54:49.074Z,24.50
2019-04-28T13:57:17.342Z,24.50
2019-04-28T13:59:47.245Z,24.50
2019-04-28T14:02:29.052Z,24.50
2019-04-28T14:05:07.777Z,24.40
2019-04-28T14:07:36.065Z,24.40
2019-04-28T14:10:06.705Z,24.40
2019-04-28T14:12:35.106Z,24.40
2019-04-28T14:15:03.714Z,24.40
2019-04-28T14:17:32.137Z,24.40
2019-04-28T14:20:00.460Z,24.30
2019-04-28T14:22:29.101Z,24.40
2019-04-28T14:24:57.742Z,24.40
2019-04-28T14:27:26.040Z,24.40
2019-04-28T14:29:54.356Z,24.50
2019-04-28T14:32:22.653Z,24.50
2019-04-28T14:34:50.957Z,24.50
2019-04-28T14:37:19.216Z,24.40
2019-04-28T14:39:47.778Z,24.50
2019-04-28T14:42:16.115Z,24.50
2019-04-28T14:44:44.441Z,24.30
2019-04-28T14:47:12.834Z,23.60
2019-04-28T14:49:41.130Z,23.20
2019-04-28T14:52:09.714Z,23.60
2019-04-28T14:54:37.990Z,23.80
2019-04-28T14:57:06.242Z,23.90
2019-04-28T14:59:34.525Z,24.00
2019-04-28T15:02:10.247Z,24.10
2019-04-28T15:04:49.418Z,24.10
2019-04-28T15:07:36.236Z,24.20
2019-04-28T15:10:16.013Z,24.30
2019-04-28T15:12:44.258Z,24.20
2019-04-28T15:15:12.897Z,24.20
2019-04-28T15:17:41.167Z,24.20
2019-04-28T15:20:09.694Z,24.30
2019-04-28T15:22:38.208Z,24.30
2019-04-28T15:25:06.914Z,24.30
2019-04-28T15:27:35.227Z,24.40
2019-04-28T15:30:03.565Z,24.40
2019-04-28T15:32:31.837Z,24.30
2019-04-28T15:35:00.390Z,24.30
2019-04-28T15:37:28.676Z,24.30
2019-04-28T15:39:56.962Z,24.30
2019-04-28T15:42:25.229Z,24.30
2019-04-28T15:44:53.478Z,24.20
2019-04-28T15:47:22.070Z,24.20
2019-04-28T15:49:50.327Z,24.10
2019-04-28T15:52:18.598Z,24.00
2019-04-28T15:54:47.228Z,24.10
2019-04-28T15:57:15.533Z,24.10
2019-04-28T15:59:44.161Z,24.10
2019-04-28T16:02:12.488Z,24.20
2019-04-28T16:04:40.741Z,24.20
2019-04-28T16:07:09.010Z,24.20
2019-04-28T16:09:37.590Z,24.20
2019-04-28T16:12:05.857Z,24.30
2019-04-28T16:14:34.130Z,24.30
2019-04-28T16:17:02.457Z,24.20
2019-04-28T16:19:30.716Z,24.20
2019-04-28T16:21:58.974Z,24.30
2019-04-28T16:24:27.257Z,24.20
2019-04-28T16:26:55.544Z,24.20
2019-04-28T16:29:23.857Z,24.20
2019-04-28T16:31:52.132Z,24.10
2019-04-28T16:34:20.403Z,24.10
2019-04-28T16:36:48.645Z,24.10
2019-04-28T16:39:16.994Z,24.10
2019-04-28T16:41:45.239Z,24.10
2019-04-28T16:44:13.673Z,24.10
2019-04-28T16:46:41.941Z,24.10
2019-04-28T16:49:10.197Z,24.10
2019-04-28T16:51:38.537Z,24.00
2019-04-28T16:54:06.813Z,24.10
2019-04-28T16:56:36.692Z,24.00
2019-04-28T16:59:23.069Z,24.00
2019-04-28T17:01:52.957Z,24.00
2019-04-28T17:04:21.239Z,24.00
2019-04-28T17:06:49.724Z,24.00
2019-04-28T17:09:19.245Z,24.00
2019-04-28T17:11:48.222Z,24.00
2019-04-28T17:14:16.593Z,23.90
2019-04-28T17:16:45.113Z,23.90
2019-04-28T17:19:13.366Z,23.90
2019-04-28T17:21:41.978Z,23.90
2019-04-28T17:24:10.254Z,23.90
2019-04-28T17:26:38.668Z,23.90
2019-04-28T17:29:06.932Z,23.90
2019-04-28T17:31:35.177Z,23.80
2019-04-28T17:34:03.465Z,23.80
2019-04-28T17:36:32.036Z,23.80
2019-04-28T17:39:00.289Z,23.80
2019-04-28T17:41:28.656Z,23.80
2019-04-28T17:43:56.905Z,23.80
2019-04-28T17:46:25.178Z,23.80
2019-04-28T17:49:00.905Z,23.70
2019-04-28T17:51:29.179Z,23.70
2019-04-28T17:53:57.492Z,23.70
2019-04-28T17:56:25.744Z,23.70
2019-04-28T17:58:54.008Z,23.60
2019-04-28T18:01:26.885Z,23.60
2019-04-28T18:04:13.381Z,23.60
2019-04-28T18:06:46.246Z,23.60
2019-04-28T18:09:14.877Z,23.60
2019-04-28T18:11:43.129Z,23.60
2019-04-28T18:14:11.398Z,23.60
2019-04-28T18:16:59.397Z,23.50
2019-04-28T18:19:28.359Z,23.50
2019-04-28T18:21:56.611Z,23.50
2019-04-28T18:24:24.859Z,23.50
2019-04-28T18:26:53.121Z,23.50
2019-04-28T18:29:21.389Z,23.50
2019-04-28T18:31:51.288Z,23.50
2019-04-28T18:34:39.377Z,23.50
2019-04-28T18:37:11.934Z,23.50
2019-04-28T18:39:58.013Z,23.50
2019-04-28T18:42:30.645Z,23.40
2019-04-28T18:44:58.926Z,23.40
2019-04-28T18:47:27.160Z,23.50
2019-04-28T18:49:55.405Z,23.40
2019-04-28T18:52:23.932Z,23.40
2019-04-28T18:54:52.175Z,23.40
2019-04-28T18:57:20.413Z,23.40
2019-04-28T18:59:48.849Z,23.40
2019-04-28T19:02:33.720Z,23.30
2019-04-28T19:05:02.046Z,23.30
2019-04-28T19:07:34.627Z,23.30
2019-04-28T19:10:10.552Z,23.30
2019-04-28T19:12:40.485Z,23.30
2019-04-28T19:15:13.570Z,23.30
2019-04-28T19:17:43.450Z,23.20
2019-04-28T19:20:13.691Z,23.20
2019-04-28T19:22:45.810Z,23.20
2019-04-28T19:25:14.476Z,23.20
2019-04-28T19:27:42.741Z,23.30
2019-04-28T19:30:10.989Z,23.20
2019-04-28T19:32:39.252Z,23.20
2019-04-28T19:35:07.529Z,23.20
2019-04-28T19:37:35.794Z,23.20
2019-04-28T19:40:05.826Z,23.20
2019-04-28T19:42:34.069Z,23.30
2019-04-28T19:45:02.321Z,23.30
2019-04-28T19:47:30.589Z,23.30
2019-04-28T19:49:58.837Z,23.40
2019-04-28T19:52:27.109Z,23.50
2019-04-28T19:55:09.266Z,23.50
2019-04-28T19:57:45.336Z,23.60
2019-04-28T20:00:17.670Z,23.70
2019-04-28T20:02:45.920Z,23.80
2019-04-28T20:05:14.209Z,23.90
2019-04-28T20:07:42.454Z,24.00
2019-04-28T20:10:11.032Z,24.00
2019-04-28T20:12:39.479Z,24.10
2019-04-28T20:15:07.956Z,24.10
2019-04-28T20:17:36.284Z,24.20
2019-04-28T20:20:05.125Z,24.20
2019-04-28T20:22:33.385Z,24.30
2019-04-28T20:25:01.709Z,24.30
2019-04-28T20:27:30.256Z,24.40
2019-04-28T20:29:58.849Z,24.50
2019-04-28T20:32:27.098Z,24.60
2019-04-28T20:34:55.369Z,24.60
2019-04-28T20:37:37.325Z,24.70
2019-04-28T20:40:08.317Z,24.80
2019-04-28T20:42:50.229Z,24.90
2019-04-28T20:45:18.494Z,25.00
2019-04-28T20:47:46.778Z,25.10
2019-04-28T20:50:15.018Z,25.20
2019-04-28T20:52:43.541Z,25.30
2019-04-28T20:55:12.130Z,25.40
2019-04-28T20:57:40.718Z,25.50
2019-04-28T21:00:08.961Z,25.60
2019-04-28T21:02:37.246Z,25.80
2019-04-28T21:05:06.065Z,25.90
2019-04-28T21:07:34.641Z,26.00
2019-04-28T21:10:02.986Z,26.10
2019-04-28T21:12:31.338Z,26.30
2019-04-28T21:14:59.629Z,26.40
2019-04-28T21:17:27.930Z,26.50
2019-04-28T21:19:56.202Z,26.60
2019-04-28T21:22:24.809Z,26.80
2019-04-28T21:24:53.065Z,26.90
2019-04-28T21:27:21.671Z,27.00
2019-04-28T21:29:49.938Z,27.10
2019-04-28T21:32:18.211Z,27.30
2019-04-28T21:34:46.454Z,27.30
2019-04-28T21:37:18.071Z,27.50
2019-04-28T21:39:44.944Z,27.60
2019-04-28T21:42:14.854Z,27.70
2019-04-28T21:45:00.817Z,27.80
2019-04-28T21:47:30.723Z,27.90
2019-04-28T21:49:59.306Z,28.10
2019-04-28T21:52:27.565Z,28.10
2019-04-28T21:54:55.846Z,28.30
2019-04-28T21:57:24.170Z,28.40
2019-04-28T21:59:52.433Z,28.40
2019-04-28T22:02:20.696Z,28.40
2019-04-28T22:04:48.948Z,28.40
2019-04-28T22:07:17.213Z,28.50
2019-04-28T22:09:45.482Z,28.50
2019-04-28T22:12:13.757Z,28.70
2019-04-28T22:14:42.375Z,28.70
2019-04-28T22:17:11.061Z,28.90
2019-04-28T22:19:39.361Z,28.90
2019-04-28T22:22:07.654Z,29.00
2019-04-28T22:24:37.552Z,29.20
2019-04-28T22:27:06.596Z,29.30
2019-04-28T22:29:34.917Z,29.40
2019-04-28T22:32:03.176Z,29.50
2019-04-28T22:34:31.491Z,29.60
2019-04-28T22:36:59.781Z,29.70
2019-04-28T22:39:28.138Z,29.80
2019-04-28T22:41:56.389Z,30.00
2019-04-28T22:44:24.666Z,30.00
2019-04-28T22:46:52.916Z,30.20
2019-04-28T22:49:21.177Z,30.30
2019-04-28T22:51:49.432Z,30.40
2019-04-28T22:54:19.342Z,30.60
2019-04-28T22:56:49.236Z,30.70
2019-04-28T22:59:25.150Z,30.80
2019-04-28T23:02:11.273Z,31.00
2019-04-28T23:04:41.186Z,31.20
2019-04-28T23:07:09.443Z,31.30
2019-04-28T23:09:37.709Z,31.50
2019-04-28T23:12:05.966Z,31.50
2019-04-28T23:14:34.606Z,31.60
2019-04-28T23:17:03.030Z,31.70
2019-04-28T23:19:32.945Z,31.50
2019-04-28T23:22:12.065Z,31.40
2019-04-28T23:24:40.337Z,31.40
2019-04-28T23:27:08.694Z,31.50
2019-04-28T23:29:36.966Z,31.60
2019-04-28T23:32:05.225Z,31.60
2019-04-28T23:34:33.497Z,31.60
2019-04-28T23:37:01.821Z,31.80
2019-04-28T23:39:30.105Z,31.70
2019-04-28T23:42:08.485Z,31.80
2019-04-28T23:44:36.766Z,31.90
2019-04-28T23:47:06.656Z,31.80
2019-04-28T23:49:34.993Z,31.90
2019-04-28T23:52:10.704Z,31.90
2019-04-28T23:54:55.888Z,32.00
2019-04-28T23:57:24.141Z,31.90
2019-04-28T23:59:52.789Z,31.90
